Point Salines, Grenada

4:45 PM AST on September 30, 2016 (GMT -0400)
Point Salines International | | Change Station

Elev 23 ft 12.00 °N, 61.79 °W | Updated 45 minutes ago

Partly Cloudy
Partly Cloudy
86 °F
Feels Like 97 °F
N
14
Wind Variable Wind from East

Today
High -- | Low -- °F
--% Chance of Precip.
Yesterday
High -- | Low -- °F
Precip. -- in
Pressure 29.77 in
Visibility 6.2 miles
Clouds Few 1900 ft
Heat Index 97 °F
Dew Point 77 °F
Humidity 74%
Rainfall 0.00 in
Snow Depth Not available.
5:56 AM 5:57 PM
Waning Crescent, 0% visible
METAR TGPY 302000Z 09012KT 9999 FEW019 30/25 Q1008 NOSIG
Pressure 29.77 in
Visibility 6.2 miles
Clouds Few 1900 ft
Heat Index 97 °F
Dew Point 77 °F
Humidity 74%
Rainfall 0.00 in
Snow Depth Not available.
5:56 AM 5:57 PM
Waning Crescent, 0% visible
METAR TGPY 302000Z 09012KT 9999 FEW019 30/25 Q1008 NOSIG

10-Day Weather Forecast

No radar image for this location.
×

Almanac

Astronomy

Sep. 30, 2016 Rise Set
Actual Time
Civil Twilight
Nautical Twilight
Astronomical Twilight
Moon
Length of Visible Light
Length of Day
Tomorrow will be .
, % of the Moon is Illuminated

Today's Extremes

Country Highs Country Lows

Community

WunderPhotos

Upload Photos

1,942,766 photos uploaded!

WunderBlog® & News

Nearby

Air Quality

  Air Quality AQ Index Pollutant
Not available.

Snow Depth

Station Depth Elevation

Earthquake Activity

City Distance Mag. Time & Date
Minimum magnitude displayed is 2.5.

Coastal Water Temperatures

Place Temperature

Stations

Nearby Weather Stations

Station Location Temp. Windchill Dew Point Humidity Wind Precip. Elev Updated Type